createdAt,value
2023-03-30T00:01:30.690Z,14.60
2023-03-30T00:04:27.309Z,12.37
2023-03-30T00:06:54.393Z,13.57
2023-03-30T00:09:22.803Z,12.70
2023-03-30T00:11:49.471Z,14.45
2023-03-30T00:14:17.980Z,12.18
2023-03-30T00:16:44.595Z,14.30
2023-03-30T00:19:11.491Z,14.20
2023-03-30T00:24:13.632Z,11.82
2023-03-30T00:29:58.759Z,14.27
2023-03-30T00:43:28.572Z,15.57
2023-03-30T00:45:57.380Z,13.05
2023-03-30T00:48:36.337Z,12.90
2023-03-30T00:51:09.784Z,12.75
2023-03-30T00:53:41.345Z,12.93
2023-03-30T00:56:11.174Z,12.30
2023-03-30T00:58:40.859Z,11.77
2023-03-30T01:01:10.953Z,13.25
2023-03-30T01:03:43.578Z,12.65
2023-03-30T01:06:11.473Z,11.07
2023-03-30T01:08:39.216Z,13.05
2023-03-30T01:11:29.664Z,12.68
2023-03-30T01:14:06.474Z,11.85
2023-03-30T01:16:36.486Z,11.52
2023-03-30T01:19:12.029Z,11.52
2023-03-30T01:22:00.286Z,13.55
2023-03-30T01:24:49.355Z,9.70
2023-03-30T01:27:49.930Z,10.02
2023-03-30T01:30:19.454Z,10.82
2023-03-30T01:33:23.441Z,10.45
2023-03-30T01:36:02.042Z,12.07
2023-03-30T01:38:46.568Z,11.52
2023-03-30T01:41:54.918Z,11.63
2023-03-30T01:44:34.355Z,12.37
2023-03-30T01:47:16.808Z,10.45
2023-03-30T01:50:26.972Z,11.40
2023-03-30T01:56:19.906Z,11.27
2023-03-30T01:58:56.305Z,11.30
2023-03-30T02:01:26.044Z,11.02
2023-03-30T02:03:57.734Z,9.93
2023-03-30T02:06:38.843Z,10.45
2023-03-30T02:11:44.950Z,11.07
2023-03-30T02:14:13.692Z,11.65
2023-03-30T02:16:59.261Z,10.75
2023-03-30T02:19:31.736Z,11.73
2023-03-30T02:22:18.912Z,13.95
2023-03-30T02:24:58.433Z,11.98
2023-03-30T02:27:26.185Z,12.35
2023-03-30T02:29:52.909Z,13.70
2023-03-30T02:32:23.510Z,11.82
2023-03-30T02:35:09.371Z,12.15
2023-03-30T02:37:47.870Z,11.23
2023-03-30T02:40:26.534Z,12.30
2023-03-30T02:43:33.573Z,12.32
2023-03-30T02:46:09.671Z,12.40
2023-03-30T02:49:08.380Z,10.65
2023-03-30T02:51:43.939Z,11.43
2023-03-30T02:55:06.690Z,13.75
2023-03-30T02:58:10.312Z,12.68
2023-03-30T03:01:00.941Z,10.43
2023-03-30T03:03:34.197Z,12.93
2023-03-30T03:06:04.300Z,13.38
2023-03-30T03:08:35.732Z,14.20
2023-03-30T03:11:02.495Z,13.52
2023-03-30T03:13:29.400Z,10.52
2023-03-30T03:15:57.008Z,11.98
2023-03-30T03:18:24.556Z,11.07
2023-03-30T03:20:51.401Z,10.05
2023-03-30T03:23:18.127Z,10.02
2023-03-30T03:25:44.686Z,11.75
2023-03-30T03:28:20.563Z,10.63
2023-03-30T03:31:09.280Z,10.55
2023-03-30T03:33:48.124Z,11.35
2023-03-30T03:36:16.590Z,11.70
2023-03-30T03:38:43.202Z,9.73
2023-03-30T03:41:10.105Z,11.63
2023-03-30T03:43:46.255Z,8.30
2023-03-30T03:46:12.898Z,11.35
2023-03-30T03:48:39.940Z,12.73
2023-03-30T03:51:07.141Z,9.73
2023-03-30T03:53:33.808Z,13.05
2023-03-30T03:56:00.361Z,13.20
2023-03-30T04:01:03.353Z,11.50
2023-03-30T04:03:30.618Z,11.80
2023-03-30T04:06:02.200Z,10.77
2023-03-30T04:08:38.122Z,12.75
2023-03-30T04:11:20.090Z,13.75
2023-03-30T04:14:05.039Z,12.95
2023-03-30T04:16:31.643Z,11.18
2023-03-30T04:18:59.908Z,13.25
2023-03-30T04:21:29.712Z,11.27
2023-03-30T04:23:56.422Z,11.73
2023-03-30T04:26:28.570Z,12.73
2023-03-30T04:29:01.606Z,13.93
2023-03-30T04:34:02.715Z,13.57
2023-03-30T04:36:29.499Z,15.70
2023-03-30T04:39:46.394Z,17.55
2023-03-30T04:42:48.756Z,15.80
2023-03-30T04:45:18.426Z,14.93
2023-03-30T04:47:46.669Z,16.73
2023-03-30T04:50:13.854Z,14.20
2023-03-30T04:52:40.472Z,14.07
2023-03-30T04:55:08.713Z,16.20
2023-03-30T04:57:35.434Z,18.70
2023-03-30T05:00:02.007Z,13.93
2023-03-30T05:02:28.712Z,16.77
2023-03-30T05:04:55.326Z,15.45
2023-03-30T05:07:22.024Z,14.85
2023-03-30T05:09:48.626Z,14.30
2023-03-30T05:12:16.661Z,16.08
2023-03-30T05:14:43.229Z,18.17
2023-03-30T05:17:10.189Z,18.58
2023-03-30T05:19:36.881Z,14.13
2023-03-30T05:22:03.460Z,16.50
2023-03-30T05:24:30.077Z,17.83
2023-03-30T05:26:56.834Z,14.82
2023-03-30T05:29:23.673Z,19.65
2023-03-30T05:31:50.254Z,15.52
2023-03-30T05:34:17.123Z,17.60
2023-03-30T05:36:44.000Z,16.05
2023-03-30T05:39:10.632Z,15.98
2023-03-30T05:41:37.195Z,15.15
2023-03-30T05:44:04.947Z,14.77
2023-03-30T05:46:31.612Z,14.70
2023-03-30T05:48:58.181Z,17.40
2023-03-30T05:51:25.514Z,17.10
2023-03-30T05:53:52.378Z,13.88
2023-03-30T05:56:18.970Z,13.88
2023-03-30T05:58:45.667Z,13.00
2023-03-30T06:01:13.448Z,14.60
2023-03-30T06:03:42.675Z,13.50
2023-03-30T06:06:09.989Z,17.52
2023-03-30T06:08:36.865Z,16.87
2023-03-30T06:11:04.408Z,18.85
2023-03-30T06:13:31.831Z,15.95
2023-03-30T06:15:59.184Z,15.73
2023-03-30T06:18:27.399Z,18.52
2023-03-30T06:20:53.953Z,18.15
2023-03-30T06:23:20.566Z,16.00
2023-03-30T06:25:52.698Z,16.77
2023-03-30T06:28:20.585Z,20.05
2023-03-30T06:30:49.278Z,16.37
2023-03-30T06:33:17.688Z,13.45
2023-03-30T06:35:49.207Z,14.32
2023-03-30T06:38:17.451Z,14.87
2023-03-30T06:40:44.085Z,16.77
2023-03-30T06:43:25.432Z,17.80
2023-03-30T06:45:57.069Z,17.92
2023-03-30T06:48:24.444Z,19.30
2023-03-30T06:50:52.151Z,21.02
2023-03-30T06:53:19.304Z,15.32
2023-03-30T06:55:51.255Z,13.23
2023-03-30T06:58:18.206Z,12.57
2023-03-30T07:00:44.984Z,13.32
2023-03-30T07:03:11.680Z,14.23
2023-03-30T07:05:38.297Z,11.75
2023-03-30T07:08:06.647Z,16.02
2023-03-30T07:10:33.323Z,17.37
2023-03-30T07:12:59.937Z,14.35
2023-03-30T07:15:26.549Z,12.37
2023-03-30T07:17:53.541Z,15.13
2023-03-30T07:20:20.458Z,11.43
2023-03-30T07:22:46.991Z,14.75
2023-03-30T07:25:13.682Z,16.40
2023-03-30T07:27:41.064Z,23.62
2023-03-30T07:30:18.760Z,14.07
2023-03-30T07:32:50.934Z,13.32
2023-03-30T07:35:18.466Z,16.00
2023-03-30T07:37:45.170Z,12.25
2023-03-30T07:40:12.839Z,16.45
2023-03-30T07:42:41.217Z,12.23
2023-03-30T07:45:08.364Z,13.52
2023-03-30T07:47:35.064Z,14.68
2023-03-30T07:50:01.741Z,12.68
2023-03-30T07:52:28.394Z,13.30
2023-03-30T07:54:56.295Z,13.02
2023-03-30T07:57:23.123Z,13.48
2023-03-30T08:02:45.309Z,14.43
2023-03-30T08:05:13.040Z,17.67
2023-03-30T08:07:41.662Z,13.27
2023-03-30T08:18:58.585Z,12.88
2023-03-30T08:23:53.688Z,14.27
2023-03-30T08:26:20.545Z,14.40
2023-03-30T08:28:47.147Z,15.43
2023-03-30T08:31:13.711Z,14.32
2023-03-30T08:33:40.325Z,12.60
2023-03-30T08:36:07.012Z,12.55
2023-03-30T08:38:33.877Z,16.98
2023-03-30T08:41:00.457Z,15.00
2023-03-30T08:43:45.632Z,14.20
2023-03-30T08:46:16.082Z,14.45
2023-03-30T08:48:43.231Z,13.05
2023-03-30T08:51:27.557Z,17.08
2023-03-30T08:54:05.482Z,12.73
2023-03-30T08:56:39.939Z,14.35
2023-03-30T08:59:39.110Z,15.68
2023-03-30T09:02:19.760Z,13.70
2023-03-30T09:05:08.561Z,12.35
2023-03-30T09:07:52.614Z,14.48
2023-03-30T09:10:22.633Z,15.13
2023-03-30T09:12:53.539Z,13.88
2023-03-30T09:15:31.760Z,12.98
2023-03-30T09:18:10.751Z,16.10
2023-03-30T09:20:39.797Z,13.60
2023-03-30T09:23:13.834Z,12.27
2023-03-30T09:25:51.130Z,14.30
2023-03-30T09:28:22.330Z,16.02
2023-03-30T09:30:56.284Z,16.33
2023-03-30T09:33:54.062Z,14.68
2023-03-30T09:36:29.325Z,13.82
2023-03-30T09:38:56.187Z,14.20
2023-03-30T09:41:40.627Z,13.77
2023-03-30T09:44:19.037Z,15.50
2023-03-30T09:46:46.867Z,16.98
2023-03-30T09:49:17.246Z,16.48
2023-03-30T09:52:14.885Z,14.60
2023-03-30T09:54:41.674Z,16.30
2023-03-30T09:57:30.253Z,18.20
2023-03-30T09:59:59.867Z,17.58
2023-03-30T10:02:31.084Z,18.87
2023-03-30T10:05:01.339Z,19.92
2023-03-30T10:07:34.677Z,16.87
2023-03-30T10:10:32.564Z,17.10
2023-03-30T10:13:07.171Z,14.55
2023-03-30T10:15:39.336Z,18.85
2023-03-30T10:18:43.467Z,19.63
2023-03-30T10:21:22.796Z,19.08
2023-03-30T10:24:25.563Z,17.80
2023-03-30T10:26:56.444Z,18.20
2023-03-30T10:29:26.283Z,14.65
2023-03-30T10:32:00.576Z,21.50
2023-03-30T10:34:52.389Z,16.00
2023-03-30T10:37:32.722Z,15.93
2023-03-30T10:40:02.692Z,16.25
2023-03-30T10:42:32.955Z,19.15
2023-03-30T10:45:01.722Z,18.12
2023-03-30T10:47:52.378Z,24.85
2023-03-30T10:50:31.752Z,18.17
2023-03-30T10:53:35.732Z,16.83
2023-03-30T10:56:03.100Z,16.70
2023-03-30T10:59:08.357Z,14.50
2023-03-30T11:02:00.921Z,15.63
2023-03-30T11:04:48.103Z,17.98
2023-03-30T11:07:37.054Z,20.58
2023-03-30T11:10:27.431Z,17.83
2023-03-30T11:13:02.436Z,14.45
2023-03-30T11:15:44.946Z,14.23
2023-03-30T11:18:17.761Z,18.58
2023-03-30T11:20:52.626Z,14.38
2023-03-30T11:23:35.554Z,16.40
2023-03-30T11:26:15.848Z,12.93
2023-03-30T11:29:01.065Z,13.18
2023-03-30T11:31:31.418Z,18.85
2023-03-30T11:34:09.421Z,14.23
2023-03-30T11:37:00.055Z,11.90
2023-03-30T11:39:33.179Z,18.12
2023-03-30T11:42:30.025Z,13.70
2023-03-30T11:44:57.471Z,16.02
2023-03-30T11:47:36.915Z,13.07
2023-03-30T11:50:13.371Z,14.93
2023-03-30T11:53:04.550Z,15.60
2023-03-30T11:55:40.316Z,14.10
2023-03-30T11:58:14.765Z,18.33
2023-03-30T12:00:56.446Z,12.63
2023-03-30T12:03:46.898Z,13.68
2023-03-30T12:06:22.653Z,11.73
2023-03-30T12:08:55.381Z,13.00
2023-03-30T12:12:03.709Z,13.38
2023-03-30T12:14:43.091Z,13.05
2023-03-30T12:17:15.017Z,12.32
2023-03-30T12:19:56.570Z,12.87
2023-03-30T12:23:01.051Z,17.85
2023-03-30T12:25:44.274Z,14.70
2023-03-30T12:28:11.849Z,15.07
2023-03-30T12:31:04.879Z,14.75
2023-03-30T12:33:36.677Z,12.65
2023-03-30T12:36:43.050Z,13.48
2023-03-30T12:39:26.680Z,15.45
2023-03-30T12:42:05.438Z,11.85
2023-03-30T12:45:01.638Z,14.30
2023-03-30T12:48:03.184Z,13.82
2023-03-30T12:50:54.547Z,11.10
2023-03-30T12:53:39.641Z,12.10
2023-03-30T12:56:28.977Z,11.85
2023-03-30T12:59:58.829Z,10.60
2023-03-30T13:02:55.716Z,7.75
2023-03-30T13:05:39.716Z,10.60
2023-03-30T13:08:36.208Z,13.02
2023-03-30T13:11:21.969Z,10.98
2023-03-30T13:14:02.234Z,9.02
2023-03-30T13:17:09.244Z,10.63
2023-03-30T13:19:37.402Z,12.40
2023-03-30T13:22:28.889Z,10.82
2023-03-30T13:25:03.863Z,9.07
2023-03-30T13:27:35.235Z,11.80
2023-03-30T13:30:03.592Z,9.48
2023-03-30T13:32:48.892Z,12.10
2023-03-30T13:35:49.848Z,11.50
2023-03-30T13:38:40.997Z,9.77
2023-03-30T13:41:28.932Z,8.88
2023-03-30T13:44:24.649Z,8.82
2023-03-30T13:46:54.399Z,10.23
2023-03-30T13:49:44.972Z,10.60
2023-03-30T13:52:17.024Z,13.48
2023-03-30T13:54:44.475Z,15.23
2023-03-30T13:57:24.668Z,11.52
2023-03-30T14:00:04.556Z,11.20
2023-03-30T14:02:31.537Z,13.48
2023-03-30T14:05:21.771Z,11.43
2023-03-30T14:07:49.164Z,11.43
2023-03-30T14:10:21.188Z,12.00
2023-03-30T14:12:57.812Z,13.30
2023-03-30T14:15:37.775Z,13.05
2023-03-30T14:18:05.573Z,12.20
2023-03-30T14:20:56.466Z,14.35
2023-03-30T14:23:38.539Z,13.60
2023-03-30T14:26:15.744Z,13.05
2023-03-30T14:28:42.709Z,14.48
2023-03-30T14:31:18.842Z,14.63
2023-03-30T14:33:45.917Z,15.13
2023-03-30T14:36:16.838Z,14.70
2023-03-30T14:38:51.782Z,11.77
2023-03-30T14:41:20.519Z,12.90
2023-03-30T14:43:53.915Z,10.60
2023-03-30T14:46:23.155Z,14.48
2023-03-30T14:48:50.822Z,10.63
2023-03-30T14:51:37.747Z,13.88
2023-03-30T14:54:06.346Z,12.27
2023-03-30T14:56:33.723Z,13.23
2023-03-30T14:59:01.695Z,13.13
2023-03-30T15:01:33.365Z,15.35
2023-03-30T15:04:09.149Z,13.75
2023-03-30T15:06:42.625Z,15.85
2023-03-30T15:09:16.997Z,12.07
2023-03-30T15:11:49.792Z,11.27
2023-03-30T15:14:22.397Z,13.25
2023-03-30T15:16:53.655Z,12.13
2023-03-30T15:19:30.929Z,11.20
2023-03-30T15:22:03.262Z,11.63
2023-03-30T15:24:36.107Z,18.02
2023-03-30T15:27:05.422Z,12.90
2023-03-30T15:29:33.040Z,12.65
2023-03-30T15:32:14.999Z,17.20
2023-03-30T15:35:15.550Z,14.63
2023-03-30T15:38:01.957Z,11.65
2023-03-30T15:40:30.372Z,15.27
2023-03-30T15:43:25.175Z,12.40
2023-03-30T15:45:55.693Z,12.13
2023-03-30T15:48:45.596Z,13.93
2023-03-30T15:51:16.932Z,12.35
2023-03-30T15:53:56.957Z,11.73
2023-03-30T15:56:30.258Z,9.50
2023-03-30T15:58:58.335Z,9.52
2023-03-30T16:01:40.173Z,13.32
2023-03-30T16:04:07.976Z,13.82
2023-03-30T16:06:35.367Z,12.73
2023-03-30T16:09:02.056Z,19.87
2023-03-30T16:11:28.686Z,11.07
2023-03-30T16:13:55.334Z,13.95
2023-03-30T16:16:22.168Z,11.80
2023-03-30T16:18:49.704Z,13.02
2023-03-30T16:21:18.388Z,16.33
2023-03-30T16:23:45.431Z,19.45
2023-03-30T16:26:12.774Z,19.30
2023-03-30T16:28:42.555Z,20.45
2023-03-30T16:31:22.228Z,18.35
2023-03-30T16:33:49.319Z,18.80
2023-03-30T16:36:18.462Z,17.87
2023-03-30T16:38:46.137Z,21.25
2023-03-30T16:41:20.532Z,21.62
2023-03-30T16:43:47.601Z,24.00
2023-03-30T16:46:16.288Z,22.33
2023-03-30T16:48:43.160Z,21.45
2023-03-30T16:51:11.566Z,19.65
2023-03-30T16:53:38.218Z,20.23
2023-03-30T16:56:05.794Z,18.17
2023-03-30T16:58:32.434Z,23.27
2023-03-30T17:01:05.311Z,39.55
2023-03-30T17:03:32.123Z,32.05
2023-03-30T17:05:59.007Z,37.00
2023-03-30T17:08:28.098Z,32.55
2023-03-30T17:10:58.418Z,27.17
2023-03-30T17:13:25.213Z,25.40
2023-03-30T17:15:52.126Z,28.58
2023-03-30T17:18:21.429Z,23.40
2023-03-30T17:20:53.705Z,23.10
2023-03-30T17:23:22.203Z,23.05
2023-03-30T17:25:49.713Z,23.58
2023-03-30T17:28:35.818Z,23.67
2023-03-30T17:31:05.077Z,22.80
2023-03-30T17:33:34.330Z,23.10
2023-03-30T17:36:25.376Z,24.77
2023-03-30T17:38:52.502Z,22.45
2023-03-30T17:41:20.364Z,24.30
2023-03-30T17:43:48.158Z,23.90
2023-03-30T17:46:17.876Z,29.65
2023-03-30T17:48:44.622Z,33.30
2023-03-30T17:51:11.187Z,26.02
2023-03-30T17:53:37.860Z,28.45
2023-03-30T17:56:04.980Z,30.58
2023-03-30T17:58:35.779Z,27.77
2023-03-30T18:01:05.527Z,26.20
2023-03-30T18:03:32.920Z,34.28
2023-03-30T18:06:01.447Z,23.38
2023-03-30T18:08:28.905Z,27.67
2023-03-30T18:11:00.211Z,30.55
2023-03-30T18:13:28.682Z,24.73
2023-03-30T18:15:56.912Z,25.62
2023-03-30T18:18:26.300Z,25.83
2023-03-30T18:20:55.102Z,24.00
2023-03-30T18:23:24.409Z,22.83
2023-03-30T18:25:51.147Z,26.52
2023-03-30T18:28:23.141Z,24.35
2023-03-30T18:30:51.167Z,28.58
2023-03-30T18:33:17.869Z,28.38
2023-03-30T18:35:46.662Z,27.65
2023-03-30T18:38:15.386Z,26.02
2023-03-30T18:40:45.441Z,23.77
2023-03-30T18:43:12.923Z,26.15
2023-03-30T18:45:41.773Z,26.30
2023-03-30T18:48:12.791Z,26.08
2023-03-30T18:50:43.396Z,25.90
2023-03-30T18:53:12.863Z,23.00
2023-03-30T18:55:42.802Z,26.90
2023-03-30T18:58:15.535Z,28.65
2023-03-30T19:00:45.023Z,26.85
2023-03-30T19:03:13.310Z,28.92
2023-03-30T19:05:40.793Z,31.10
2023-03-30T19:08:14.601Z,34.33
2023-03-30T19:10:43.500Z,32.33
2023-03-30T19:13:18.159Z,30.73
2023-03-30T19:15:45.705Z,32.95
2023-03-30T19:20:50.084Z,29.45
2023-03-30T19:23:18.232Z,25.42
2023-03-30T19:25:46.210Z,27.85
2023-03-30T19:28:15.238Z,28.35
2023-03-30T19:30:42.620Z,25.80
2023-03-30T19:33:27.789Z,24.83
2023-03-30T19:36:12.848Z,23.80
2023-03-30T19:38:45.895Z,27.62
2023-03-30T19:41:12.594Z,29.73
2023-03-30T19:43:39.132Z,26.25
2023-03-30T19:46:06.106Z,33.78
2023-03-30T19:48:38.047Z,34.58
2023-03-30T19:51:04.839Z,35.28
2023-03-30T19:53:31.540Z,29.37
2023-03-30T19:56:01.062Z,34.00
2023-03-30T19:58:28.678Z,28.70
2023-03-30T20:00:55.494Z,28.30
2023-03-30T20:03:22.173Z,27.27
2023-03-30T20:08:30.673Z,29.10
2023-03-30T20:10:59.357Z,32.20
2023-03-30T20:13:27.300Z,30.80
2023-03-30T20:15:55.219Z,30.83
2023-03-30T20:18:21.802Z,37.45
2023-03-30T20:20:48.387Z,30.95
2023-03-30T20:23:15.002Z,31.02
2023-03-30T20:25:46.648Z,29.08
2023-03-30T20:28:13.228Z,26.95
2023-03-30T20:30:39.775Z,28.62
2023-03-30T20:35:41.830Z,28.83
2023-03-30T20:49:19.256Z,35.65
2023-03-30T20:51:46.416Z,31.98
2023-03-30T20:54:13.037Z,30.73
2023-03-30T20:56:39.654Z,29.37
2023-03-30T20:59:06.318Z,29.67
2023-03-30T21:01:34.156Z,31.27
2023-03-30T21:04:02.361Z,26.08
2023-03-30T21:06:31.503Z,28.25
2023-03-30T21:09:01.352Z,22.25
2023-03-30T21:11:29.725Z,23.02
2023-03-30T21:13:56.631Z,25.80
2023-03-30T21:16:24.628Z,19.95
2023-03-30T21:18:51.533Z,24.85
2023-03-30T21:21:18.778Z,22.05
2023-03-30T21:23:46.200Z,21.73
2023-03-30T21:26:13.766Z,21.48
2023-03-30T21:28:41.449Z,21.55
2023-03-30T21:31:10.967Z,19.40
2023-03-30T21:34:43.864Z,17.45
2023-03-30T21:37:25.243Z,16.60
2023-03-30T21:39:51.816Z,19.23
2023-03-30T21:42:18.396Z,19.33
2023-03-30T21:44:44.982Z,21.05
2023-03-30T21:47:15.004Z,23.27
2023-03-30T21:49:41.614Z,24.25
2023-03-30T22:02:42.584Z,22.80
2023-03-30T22:05:56.222Z,22.23
2023-03-30T22:42:10.269Z,13.65
2023-03-30T22:44:37.002Z,15.18
2023-03-30T22:47:03.571Z,16.65
2023-03-30T22:49:30.292Z,13.02
2023-03-30T22:51:56.935Z,13.23
2023-03-30T22:54:23.605Z,13.32
2023-03-30T22:57:08.757Z,11.75
2023-03-30T23:00:22.352Z,15.40
2023-03-30T23:32:22.262Z,10.52
2023-03-30T23:34:48.853Z,9.95
2023-03-30T23:37:15.517Z,17.25
2023-03-30T23:39:42.105Z,13.65
2023-03-30T23:42:08.723Z,12.02
2023-03-30T23:44:35.417Z,11.75
2023-03-30T23:47:45.920Z,12.48
2023-03-30T23:50:46.769Z,13.45
